Time;durP1;ratioP1;P1;durP2;ratioP2;P2;SDS_P1;SDS_P2;PMS_P1;PMS_P2;Temp;Humidity;BMP_temperature;BMP_pressure;BME280_temperature;BME280_humidity;BME280_pressure;Samples;Min_cycle;Max_cycle;Signal;HPM_P1;HPM_P2
2021/06/26 00:00:55;;;;;;;5.90;3.05;;;;;;;23.17;65.02;100164.25;5055975;28;20408;-63
2021/06/26 00:03:26;;;;;;;3.75;2.75;;;;;;;23.18;65.29;100158.03;5038343;28;20025;-63
2021/06/26 00:05:51;;;;;;;6.03;3.23;;;;;;;23.18;66.07;100160.09;5055594;28;20025;-63
2021/06/26 00:08:17;;;;;;;7.28;2.88;;;;;;;23.14;65.92;100180.38;5055944;28;20293;-63
2021/06/26 00:10:44;;;;;;;6.90;3.50;;;;;;;23.10;66.29;100176.91;5056169;28;20222;-63
2021/06/26 00:13:10;;;;;;;7.88;3.10;;;;;;;23.06;66.68;100177.13;5055509;28;20017;-63
2021/06/26 00:15:35;;;;;;;4.60;3.30;;;;;;;23.08;66.54;100173.75;5055718;28;20428;-61
2021/06/26 00:18:01;;;;;;;5.78;3.00;;;;;;;23.06;66.66;100182.06;5055491;28;20028;-62
2021/06/26 00:20:27;;;;;;;3.72;3.08;;;;;;;23.03;67.37;100183.84;5055648;28;20476;-62
2021/06/26 00:22:52;;;;;;;7.65;2.92;;;;;;;22.99;67.76;100191.81;5055432;28;20039;-63
2021/06/26 00:25:18;;;;;;;5.30;3.45;;;;;;;22.95;67.37;100190.44;5055637;28;20345;-63
2021/06/26 00:27:43;;;;;;;6.80;3.55;;;;;;;22.89;67.67;100181.75;5055511;28;20032;-63
2021/06/26 00:30:09;;;;;;;10.93;4.13;;;;;;;22.86;67.73;100193.41;5055443;28;20024;-63
2021/06/26 00:32:34;;;;;;;7.15;3.33;;;;;;;22.85;67.88;100191.84;5055096;28;20021;-62
2021/06/26 00:35:00;;;;;;;6.18;4.25;;;;;;;22.81;67.75;100194.91;5055588;28;20028;-63
2021/06/26 00:37:25;;;;;;;6.68;3.60;;;;;;;22.78;67.76;100195.84;5055178;28;20052;-63
2021/06/26 00:39:51;;;;;;;7.75;4.60;;;;;;;22.74;67.73;100190.31;5055579;28;20032;-62
2021/06/26 00:42:16;;;;;;;8.85;2.97;;;;;;;22.73;67.95;100199.38;5055473;28;20025;-62
2021/06/26 00:44:41;;;;;;;10.30;4.57;;;;;;;22.71;68.09;100202.72;5055417;28;20351;-62
2021/06/26 00:47:13;;;;;;;8.57;3.30;;;;;;;22.69;68.09;100199.56;5054905;28;20021;-62
2021/06/26 00:49:39;;;;;;;6.53;3.17;;;;;;;22.69;67.99;100195.91;5055289;28;20101;-63
2021/06/26 00:52:04;;;;;;;5.13;3.15;;;;;;;22.68;68.17;100206.59;5055246;28;20017;-62
2021/06/26 00:54:30;;;;;;;4.57;3.20;;;;;;;22.68;67.95;100208.66;5055086;28;20024;-62
2021/06/26 00:56:56;;;;;;;4.00;3.13;;;;;;;22.64;67.67;100208.06;5053155;28;20048;-62
2021/06/26 00:59:22;;;;;;;7.07;3.13;;;;;;;22.58;67.65;100207.16;5055427;28;20028;-62
2021/06/26 01:01:47;;;;;;;6.00;2.97;;;;;;;22.54;67.37;100215.16;5054810;28;20028;-62
2021/06/26 01:04:13;;;;;;;3.67;2.70;;;;;;;22.50;67.70;100218.22;5055322;28;20029;-62
2021/06/26 01:06:38;;;;;;;5.32;3.03;;;;;;;22.46;67.48;100214.72;5054799;28;20052;-62
2021/06/26 01:09:03;;;;;;;3.92;2.85;;;;;;;22.42;67.55;100214.91;5054853;28;20132;-62
2021/06/26 01:11:29;;;;;;;5.95;2.90;;;;;;;22.36;67.42;100204.63;5055361;28;20056;-62
2021/06/26 01:13:54;;;;;;;4.63;2.65;;;;;;;22.32;67.49;100207.69;5055073;28;20409;-62
2021/06/26 01:16:20;;;;;;;7.13;2.90;;;;;;;22.28;67.53;100209.94;5054900;28;20032;-62
2021/06/26 01:18:45;;;;;;;5.82;2.60;;;;;;;22.22;67.44;100194.72;5055213;28;20029;-62
2021/06/26 01:21:10;;;;;;;5.47;2.58;;;;;;;22.18;67.49;100196.97;5055015;28;20021;-62
2021/06/26 01:23:44;;;;;;;4.30;2.30;;;;;;;22.13;67.70;100194.78;5055088;28;20024;-62
2021/06/26 01:26:09;;;;;;;4.93;2.35;;;;;;;22.10;67.63;100181.44;5037263;28;20029;-63
2021/06/26 01:28:35;;;;;;;3.75;2.60;;;;;;;22.06;67.44;100192.28;5055115;28;20083;-63
2021/06/26 01:31:00;;;;;;;4.13;2.38;;;;;;;22.01;67.49;100195.78;5054580;28;20075;-61
2021/06/26 01:33:26;;;;;;;3.65;2.20;;;;;;;21.96;67.45;100190.75;5054793;28;20692;-63
2021/06/26 01:35:51;;;;;;;6.70;2.35;;;;;;;21.89;67.63;100186.94;5054754;28;20025;-63
2021/06/26 01:38:16;;;;;;;5.95;2.33;;;;;;;21.84;67.69;100186.81;5054975;28;20401;-63
2021/06/26 01:40:42;;;;;;;3.97;2.25;;;;;;;21.82;67.64;100187.31;5055126;28;20063;-63
2021/06/26 01:43:11;;;;;;;2.38;1.98;;;;;;;21.79;67.71;100182.56;5054561;28;20413;-63
2021/06/26 01:45:37;;;;;;;5.97;2.13;;;;;;;21.77;67.62;100176.53;5054649;28;20021;-63
2021/06/26 01:48:02;;;;;;;4.68;2.58;;;;;;;21.75;67.42;100176.22;5054446;28;20029;-63
2021/06/26 01:50:29;;;;;;;3.00;2.65;;;;;;;21.73;67.51;100170.19;5054816;28;20100;-63
2021/06/26 01:52:55;;;;;;;7.22;2.72;;;;;;;21.71;67.58;100167.03;5036948;28;20017;-63
2021/06/26 01:55:22;;;;;;;6.72;2.83;;;;;;;21.68;67.54;100168.00;5054827;28;20035;-61
2021/06/26 01:57:49;;;;;;;5.30;2.05;;;;;;;21.65;67.48;100168.97;5054662;28;20079;-63
2021/06/26 02:00:16;;;;;;;3.65;2.25;;;;;;;21.61;67.46;100179.78;5056712;28;20082;-62
2021/06/26 02:02:42;;;;;;;4.65;2.35;;;;;;;21.57;67.46;100190.63;5058423;28;20370;-63
2021/06/26 02:05:09;;;;;;;4.68;2.33;;;;;;;21.55;67.76;100193.97;5057944;28;20021;-62
2021/06/26 02:07:35;;;;;;;4.53;2.47;;;;;;;21.55;67.59;100193.97;5058650;28;20179;-61
2021/06/26 02:10:00;;;;;;;4.10;1.92;;;;;;;21.55;67.52;100201.75;5057749;28;20139;-63
2021/06/26 02:12:25;;;;;;;4.03;2.40;;;;;;;21.53;67.70;100202.22;5056122;28;20017;-62
2021/06/26 02:14:52;;;;;;;5.13;2.58;;;;;;;21.53;67.74;100210.00;5040276;28;20029;-63
2021/06/26 02:17:19;;;;;;;4.80;2.58;;;;;;;21.53;68.00;100207.16;5054592;28;20028;-63
2021/06/26 02:19:44;;;;;;;4.20;2.38;;;;;;;21.53;67.82;100202.22;5058024;28;20017;-63
2021/06/26 02:22:10;;;;;;;2.42;2.22;;;;;;;21.52;67.94;100199.84;5057951;28;20048;-61
2021/06/26 02:24:35;;;;;;;3.35;2.13;;;;;;;21.53;67.70;100201.44;5058013;28;20028;-61
2021/06/26 02:27:01;;;;;;;9.82;2.85;;;;;;;21.52;67.67;100199.84;5057535;28;20323;-62
2021/06/26 02:29:26;;;;;;;4.53;2.40;;;;;;;21.48;67.77;100214.31;5057732;28;20040;-62
2021/06/26 02:31:51;;;;;;;4.82;2.28;;;;;;;21.46;68.02;100207.50;5057782;28;20025;-62
2021/06/26 02:34:19;;;;;;;7.03;2.63;;;;;;;21.45;68.08;100218.16;5057639;28;20396;-62
2021/06/26 02:36:44;;;;;;;8.45;2.72;;;;;;;21.41;67.94;100216.75;5057686;28;20044;-63
2021/06/26 02:39:09;;;;;;;3.13;2.47;;;;;;;21.41;68.18;100228.19;5057516;28;20057;-62
2021/06/26 02:41:34;;;;;;;6.47;2.70;;;;;;;21.38;68.20;100223.44;5057490;28;20120;-63
2021/06/26 02:44:00;;;;;;;7.18;2.20;;;;;;;21.39;68.42;100216.44;5057085;28;20124;-63
2021/06/26 02:46:25;;;;;;;6.90;2.75;;;;;;;21.38;68.65;100220.56;5057524;28;20021;-62
2021/06/26 02:48:50;;;;;;;8.40;2.95;;;;;;;21.33;68.87;100218.34;5057180;28;20021;-62
2021/06/26 02:51:16;;;;;;;5.03;2.38;;;;;;;21.31;69.03;100212.31;5057484;28;20044;-62
2021/06/26 02:53:41;;;;;;;6.90;3.13;;;;;;;21.29;69.24;100216.44;5057144;28;20108;-62
2021/06/26 02:56:07;;;;;;;6.20;3.13;;;;;;;21.27;69.29;100215.34;5057215;28;20025;-63
2021/06/26 02:58:32;;;;;;;7.15;3.33;;;;;;;21.25;69.38;100209.31;5057092;28;20029;-62
2021/06/26 03:00:57;;;;;;;5.40;3.20;;;;;;;21.21;69.76;100208.66;5056977;28;20021;-63
2021/06/26 03:03:23;;;;;;;8.02;4.03;;;;;;;21.18;70.23;100199.00;5057197;28;20032;-62
2021/06/26 03:05:48;;;;;;;7.35;4.60;;;;;;;21.19;70.44;100200.56;5056824;28;20413;-62
2021/06/26 03:08:13;;;;;;;6.35;4.22;;;;;;;21.18;70.68;100199.00;5057081;28;20028;-60
2021/06/26 03:10:39;;;;;;;8.20;4.75;;;;;;;21.19;70.77;100197.72;5056292;28;20349;-62
2021/06/26 03:13:04;;;;;;;8.48;4.53;;;;;;;21.17;70.72;100197.41;5056659;28;20013;-62
2021/06/26 03:15:30;;;;;;;7.55;4.53;;;;;;;21.18;70.91;100199.00;5056829;28;20125;-61
2021/06/26 03:17:55;;;;;;;7.97;5.13;;;;;;;21.18;71.06;100204.72;5056733;28;20017;-62
2021/06/26 03:20:20;;;;;;;7.35;4.65;;;;;;;21.18;71.00;100212.50;5056782;28;20404;-63
2021/06/26 03:22:46;;;;;;;9.15;4.90;;;;;;;21.18;71.26;100212.50;5056451;28;20025;-63
2021/06/26 03:25:13;;;;;;;5.35;4.72;;;;;;;21.20;70.89;100218.53;5056749;28;20107;-63
2021/06/26 03:27:40;;;;;;;8.80;4.85;;;;;;;21.22;71.01;100213.13;5056778;28;20031;-63
2021/06/26 03:30:06;;;;;;;8.38;4.93;;;;;;;21.22;70.92;100205.34;5038632;28;20028;-61
2021/06/26 03:32:31;;;;;;;11.45;5.25;;;;;;;21.21;70.76;100203.75;5056606;28;20021;-61
2021/06/26 03:34:57;;;;;;;13.65;5.25;;;;;;;21.22;70.86;100207.41;5056408;28;20028;-62
2021/06/26 03:37:22;;;;;;;11.88;5.03;;;;;;;21.20;70.90;100202.16;5056511;28;20481;-62
2021/06/26 03:39:47;;;;;;;8.63;5.78;;;;;;;21.20;71.71;100196.44;5056114;28;20120;-62
2021/06/26 03:42:13;;;;;;;7.20;5.30;;;;;;;21.22;71.13;100198.81;5038751;28;20482;-61
2021/06/26 03:44:39;;;;;;;7.05;5.20;;;;;;;21.23;71.29;100209.81;5056479;28;20368;-61
2021/06/26 03:47:04;;;;;;;7.72;5.30;;;;;;;21.24;71.43;100214.25;5055886;28;20024;-61
2021/06/26 03:49:33;;;;;;;10.07;5.38;;;;;;;21.27;71.76;100218.19;5056214;28;20433;-62
2021/06/26 03:51:58;;;;;;;10.60;4.90;;;;;;;21.29;71.34;100209.94;5055935;28;20017;-63
2021/06/26 03:54:23;;;;;;;13.80;5.90;;;;;;;21.34;71.75;100212.13;5055800;28;20056;-62
2021/06/26 03:56:49;;;;;;;8.35;4.85;;;;;;;21.38;71.19;100207.06;5056093;28;20099;-63
2021/06/26 03:59:14;;;;;;;8.70;4.97;;;;;;;21.41;71.15;100205.31;5056029;28;20033;-63
2021/06/26 04:01:39;;;;;;;6.57;5.03;;;;;;;21.42;71.11;100210.53;5055875;28;20029;-61
2021/06/26 04:04:05;;;;;;;7.30;4.40;;;;;;;21.42;71.48;100216.25;5055747;28;20025;-61
2021/06/26 04:06:30;;;;;;;11.47;5.60;;;;;;;21.43;71.38;100214.19;5056053;28;20060;-61
2021/06/26 04:08:55;;;;;;;7.32;5.03;;;;;;;21.45;71.15;100221.00;5055168;28;20693;-61
2021/06/26 04:11:21;;;;;;;12.43;5.25;;;;;;;21.48;71.43;100217.19;5055947;28;20036;-61
2021/06/26 04:13:46;;;;;;;6.38;4.43;;;;;;;21.53;71.28;100215.75;5055838;28;20035;-62
2021/06/26 04:16:11;;;;;;;10.38;5.75;;;;;;;21.57;71.03;100213.50;5055643;28;20043;-62
2021/06/26 04:18:37;;;;;;;7.70;5.03;;;;;;;21.65;70.60;100216.81;5055649;28;20362;-61
2021/06/26 04:21:02;;;;;;;11.63;5.40;;;;;;;21.65;71.02;100211.88;5055701;28;20025;-61
2021/06/26 04:23:27;;;;;;;11.98;5.20;;;;;;;21.73;70.73;100215.97;5055287;28;20025;-63
2021/06/26 04:25:53;;;;;;;6.85;4.30;;;;;;;21.78;70.60;100209.59;5055432;28;20024;-62
2021/06/26 04:28:18;;;;;;;6.35;4.63;;;;;;;21.83;70.46;100208.13;5055488;28;20066;-63
2021/06/26 04:30:43;;;;;;;12.20;5.07;;;;;;;21.88;70.11;100201.72;5055618;28;20078;-61
2021/06/26 04:33:09;;;;;;;11.15;5.13;;;;;;;21.94;70.04;100204.75;5055342;28;20025;-62
2021/06/26 04:35:35;;;;;;;9.00;4.97;;;;;;;22.03;69.70;100210.41;5055609;28;20025;-62
2021/06/26 04:38:00;;;;;;;8.85;5.53;;;;;;;22.08;69.80;100196.25;5055336;28;20332;-62
2021/06/26 04:40:26;;;;;;;11.40;5.43;;;;;;;22.12;70.07;100202.56;5037687;28;20037;-63
2021/06/26 04:42:52;;;;;;;7.43;4.82;;;;;;;22.16;69.80;100196.66;5055193;28;20029;-61
2021/06/26 04:45:18;;;;;;;9.70;5.72;;;;;;;22.21;69.99;100198.88;5055249;28;20021;-61
2021/06/26 04:47:44;;;;;;;12.15;5.10;;;;;;;22.26;69.78;100201.06;5054205;28;20024;-62
2021/06/26 04:50:11;;;;;;;9.52;5.45;;;;;;;22.33;69.49;100200.69;5054168;28;20090;-61
2021/06/26 04:52:38;;;;;;;7.30;5.20;;;;;;;22.39;69.05;100198.72;5054370;28;20024;-62
2021/06/26 04:55:04;;;;;;;10.38;5.28;;;;;;;22.46;68.66;100206.13;5054938;28;20049;-61
2021/06/26 04:57:30;;;;;;;6.82;5.30;;;;;;;22.52;69.13;100207.06;5055080;28;20056;-62
2021/06/26 04:59:55;;;;;;;9.38;5.22;;;;;;;22.60;69.54;100210.34;5055144;28;20024;-62
2021/06/26 05:02:20;;;;;;;13.48;6.55;;;;;;;22.69;68.59;100207.38;5055299;28;20021;-62
2021/06/26 05:04:46;;;;;;;8.45;6.10;;;;;;;22.74;68.56;100212.44;5037244;28;20473;-62
2021/06/26 05:07:11;;;;;;;8.25;6.38;;;;;;;22.80;68.00;100210.47;5054867;28;20025;-62
2021/06/26 05:09:37;;;;;;;9.45;6.63;;;;;;;22.84;67.58;100210.31;5054964;28;20134;-62
2021/06/26 05:12:03;;;;;;;13.38;6.28;;;;;;;22.89;67.91;100206.75;5054977;28;20021;-63
2021/06/26 05:14:28;;;;;;;13.07;7.20;;;;;;;22.96;68.32;100212.09;5054880;28;20064;-63
2021/06/26 05:16:53;;;;;;;9.05;6.20;;;;;;;23.03;67.75;100206.78;5054958;28;20060;-63
2021/06/26 05:19:19;;;;;;;7.40;5.88;;;;;;;23.09;67.86;100204.00;5054888;28;20020;-63
2021/06/26 05:21:44;;;;;;;8.60;6.50;;;;;;;23.17;68.25;100207.25;5054737;28;20021;-62
2021/06/26 05:24:09;;;;;;;10.35;5.82;;;;;;;23.23;67.30;100208.13;5054981;28;20036;-62
2021/06/26 05:26:35;;;;;;;11.93;7.10;;;;;;;23.33;67.75;100212.50;5054912;28;20368;-62
2021/06/26 05:29:00;;;;;;;9.43;7.20;;;;;;;23.39;67.07;100211.31;5054956;28;20021;-62
2021/06/26 05:31:26;;;;;;;11.98;7.45;;;;;;;23.46;66.91;100212.19;5054657;28;20033;-62
2021/06/26 05:33:51;;;;;;;12.20;6.53;;;;;;;23.52;66.24;100207.31;5055217;28;20074;-63
2021/06/26 05:36:17;;;;;;;11.60;7.43;;;;;;;23.58;66.67;100211.91;5058529;28;20527;-63
2021/06/26 05:38:42;;;;;;;12.52;7.07;;;;;;;23.65;66.73;100208.63;5058508;28;20041;-65
2021/06/26 05:41:08;;;;;;;9.02;7.20;;;;;;;23.73;66.38;100204.06;5058693;28;20033;-63
2021/06/26 05:43:34;;;;;;;8.43;6.88;;;;;;;23.79;66.25;100211.94;5058670;28;20021;-62
2021/06/26 05:46:00;;;;;;;13.30;7.00;;;;;;;23.87;67.84;100213.13;5058680;28;20021;-63
2021/06/26 05:48:25;;;;;;;11.02;7.65;;;;;;;23.92;65.97;100207.47;5058694;28;20028;-63
2021/06/26 05:50:50;;;;;;;9.23;7.05;;;;;;;23.97;64.98;100205.97;5058672;28;20017;-63
2021/06/26 05:53:18;;;;;;;10.50;7.45;;;;;;;24.03;65.63;100219.09;5056924;28;20316;-63
2021/06/26 05:55:55;;;;;;;9.55;7.45;;;;;;;24.13;66.24;100216.91;5058572;28;20016;-64
2021/06/26 05:58:21;;;;;;;9.60;7.78;;;;;;;24.20;64.89;100218.56;5058398;28;20293;-67
2021/06/26 06:00:46;;;;;;;7.85;7.05;;;;;;;24.26;65.43;100220.19;5058091;28;20028;-63
2021/06/26 06:03:12;;;;;;;16.25;7.78;;;;;;;24.33;64.40;100216.91;5057776;28;20032;-65
2021/06/26 06:05:37;;;;;;;11.50;8.18;;;;;;;24.39;64.10;100234.25;5056590;28;20474;-63
2021/06/26 06:08:03;;;;;;;10.32;7.90;;;;;;;24.43;64.19;100228.28;5058075;28;20056;-65
2021/06/26 06:10:28;;;;;;;11.00;7.43;;;;;;;24.48;63.69;100236.19;5058177;28;20351;-64
2021/06/26 06:12:53;;;;;;;10.90;7.72;;;;;;;24.53;63.86;100239.13;5057460;28;20013;-64
2021/06/26 06:15:19;;;;;;;9.63;7.25;;;;;;;24.61;63.59;100246.00;5057368;28;20021;-64
2021/06/26 06:17:44;;;;;;;11.60;7.13;;;;;;;24.68;62.88;100244.81;5057875;28;20070;-62
2021/06/26 06:20:10;;;;;;;8.57;7.30;;;;;;;24.75;63.79;100247.22;5056171;28;20071;-67
2021/06/26 06:22:36;;;;;;;7.28;6.55;;;;;;;24.81;63.00;100242.31;5057903;28;20017;-63
2021/06/26 06:25:05;;;;;;;10.38;7.18;;;;;;;24.89;62.57;100248.41;5057674;28;20111;-67
2021/06/26 06:27:31;;;;;;;9.80;6.88;;;;;;;24.96;63.18;100254.53;5057898;28;20487;-63
2021/06/26 06:29:56;;;;;;;9.15;6.68;;;;;;;24.99;62.95;100246.22;5057620;28;20021;-63
2021/06/26 06:32:22;;;;;;;7.28;6.07;;;;;;;25.02;63.34;100253.81;5057752;28;20154;-63
2021/06/26 06:34:48;;;;;;;10.02;6.97;;;;;;;25.09;63.32;100257.03;5057707;28;20028;-64
2021/06/26 06:37:13;;;;;;;9.73;6.32;;;;;;;25.17;63.12;100251.63;5057546;28;20571;-65
2021/06/26 06:39:38;;;;;;;9.73;6.78;;;;;;;25.26;62.54;100257.22;5057551;28;20029;-63
2021/06/26 06:42:04;;;;;;;10.32;7.43;;;;;;;25.31;60.85;100262.22;5057097;28;20044;-62
2021/06/26 06:44:29;;;;;;;9.52;6.68;;;;;;;25.36;61.63;100264.38;5057377;28;20387;-63
2021/06/26 06:46:55;;;;;;;10.85;6.93;;;;;;;25.40;60.45;100270.69;5056777;28;20071;-63
2021/06/26 06:49:20;;;;;;;10.65;7.28;;;;;;;25.39;60.42;100274.84;5057451;28;20028;-63
2021/06/26 06:51:46;;;;;;;8.52;6.70;;;;;;;25.40;60.66;100276.44;5057070;28;20055;-66
2021/06/26 06:54:11;;;;;;;9.63;7.25;;;;;;;25.44;61.45;100277.00;5057113;28;20029;-67
2021/06/26 06:56:36;;;;;;;9.55;6.75;;;;;;;25.49;61.12;100279.16;5057359;28;20324;-63
2021/06/26 06:59:02;;;;;;;11.60;7.25;;;;;;;25.59;61.75;100276.88;5056845;28;20120;-66
2021/06/26 07:01:28;;;;;;;9.38;6.93;;;;;;;25.69;61.45;100281.16;5056599;28;20024;-66
2021/06/26 07:03:53;;;;;;;10.35;7.60;;;;;;;25.80;61.08;100283.38;5056240;28;20035;-62
2021/06/26 07:06:18;;;;;;;8.73;6.95;;;;;;;25.88;60.29;100278.72;5057011;28;20075;-63
2021/06/26 07:08:44;;;;;;;11.13;8.68;;;;;;;25.96;60.75;100279.81;5056153;28;20045;-62
2021/06/26 07:11:09;;;;;;;11.57;7.05;;;;;;;26.03;60.61;100279.34;5056730;28;20028;-63
2021/06/26 07:13:35;;;;;;;18.10;7.90;;;;;;;26.08;59.79;100283.56;5057081;28;20408;-62
2021/06/26 07:16:00;;;;;;;16.38;7.45;;;;;;;26.12;59.89;100279.16;5056554;28;20108;-62
2021/06/26 07:18:26;;;;;;;10.32;7.20;;;;;;;26.21;60.27;100283.91;5056535;28;20040;-63
2021/06/26 07:20:52;;;;;;;14.75;8.07;;;;;;;26.30;59.64;100280.84;5056833;28;20028;-65
2021/06/26 07:23:17;;;;;;;11.40;7.28;;;;;;;26.36;59.53;100283.78;5056548;28;20021;-65
2021/06/26 07:25:42;;;;;;;8.23;7.38;;;;;;;26.44;58.76;100277.00;5056696;28;20052;-64
2021/06/26 07:28:08;;;;;;;15.10;7.82;;;;;;;26.52;59.12;100283.06;5056330;28;20036;-65
2021/06/26 07:30:33;;;;;;;11.80;7.15;;;;;;;26.60;58.39;100286.25;5039154;28;20024;-64
2021/06/26 07:32:59;;;;;;;11.75;6.80;;;;;;;26.65;58.04;100292.03;5056174;28;20052;-62
2021/06/26 07:35:24;;;;;;;8.38;7.07;;;;;;;26.70;57.13;100288.38;5054455;28;20052;-65
2021/06/26 07:37:49;;;;;;;10.60;7.32;;;;;;;26.76;58.39;100300.72;5054475;28;20359;-64
2021/06/26 07:40:16;;;;;;;12.43;7.70;;;;;;;26.81;58.29;100290.53;5053860;28;20041;-65
2021/06/26 07:42:42;;;;;;;13.32;7.15;;;;;;;26.91;58.34;100294.00;5054811;28;20039;-63
2021/06/26 07:45:08;;;;;;;9.10;7.43;;;;;;;26.98;57.22;100291.38;5055082;28;20024;-65
2021/06/26 07:47:34;;;;;;;54.15;12.32;;;;;;;27.07;56.92;100287.50;5056088;28;20063;-62
2021/06/26 07:50:00;;;;;;;19.13;8.05;;;;;;;27.13;57.43;100285.44;5056010;28;20021;-63
2021/06/26 07:52:25;;;;;;;22.10;8.63;;;;;;;27.21;57.10;100286.50;5055495;28;20048;-62
2021/06/26 07:54:50;;;;;;;8.75;7.20;;;;;;;27.30;56.02;100277.59;5056133;28;20025;-62
2021/06/26 07:57:16;;;;;;;8.20;7.00;;;;;;;27.34;55.21;100289.66;5053478;28;20478;-62
2021/06/26 07:59:41;;;;;;;8.90;7.38;;;;;;;27.31;54.79;100284.94;5055970;28;20258;-62
2021/06/26 08:02:07;;;;;;;9.88;7.53;;;;;;;27.29;55.38;100283.88;5055532;28;20523;-66
2021/06/26 08:04:32;;;;;;;10.05;7.60;;;;;;;27.31;54.10;100279.16;5055156;28;20156;-62
2021/06/26 08:06:58;;;;;;;10.63;7.20;;;;;;;27.36;56.18;100298.56;5053153;28;20061;-62
2021/06/26 08:09:23;;;;;;;11.70;7.80;;;;;;;27.39;54.74;100288.91;5052568;28;20048;-66
2021/06/26 08:11:48;;;;;;;9.15;7.15;;;;;;;27.42;54.53;100283.38;4995234;28;20058;-63
2021/06/26 08:14:14;;;;;;;8.07;7.27;;;;;;;27.48;54.60;100281.28;5026081;28;20029;-64
2021/06/26 08:16:39;;;;;;;14.10;6.88;;;;;;;27.53;54.04;100283.38;5055413;28;20580;-63
2021/06/26 08:19:04;;;;;;;7.82;7.03;;;;;;;27.58;54.87;100276.81;5055521;28;20051;-68
2021/06/26 08:21:30;;;;;;;10.05;6.82;;;;;;;27.62;52.54;100281.06;5037998;28;20029;-63
2021/06/26 08:23:55;;;;;;;7.47;6.53;;;;;;;27.65;52.48;100273.44;5055617;28;20020;-67
2021/06/26 08:26:21;;;;;;;10.43;7.50;;;;;;;27.68;53.15;100275.31;5055071;28;20115;-64
2021/06/26 08:28:47;;;;;;;7.90;6.65;;;;;;;27.76;53.61;100276.34;5055051;28;20096;-66
2021/06/26 08:31:12;;;;;;;11.63;7.15;;;;;;;27.82;52.42;100274.22;5054733;28;20055;-63
2021/06/26 08:33:37;;;;;;;9.32;7.13;;;;;;;27.85;52.83;100270.28;5054867;28;20016;-63
2021/06/26 08:36:03;;;;;;;9.07;7.15;;;;;;;27.83;52.06;100266.34;5055021;28;20036;-64
2021/06/26 08:38:29;;;;;;;8.68;6.82;;;;;;;27.82;52.91;100262.69;5054705;28;20100;-67
2021/06/26 08:40:55;;;;;;;10.02;6.75;;;;;;;27.81;51.19;100269.78;5055298;28;20365;-68
2021/06/26 08:43:22;;;;;;;8.63;6.97;;;;;;;27.83;52.05;100261.38;5055064;28;20147;-65
2021/06/26 08:45:48;;;;;;;7.68;6.82;;;;;;;27.89;51.56;100264.25;5054942;28;20078;-64
2021/06/26 08:48:14;;;;;;;6.97;6.28;;;;;;;27.95;51.92;100268.72;5055156;28;20429;-64
2021/06/26 08:50:39;;;;;;;8.55;6.07;;;;;;;28.04;51.36;100263.97;5055337;28;20031;-64
2021/06/26 08:53:05;;;;;;;7.75;6.13;;;;;;;28.12;50.35;100257.13;5037538;28;20029;-67
2021/06/26 08:55:30;;;;;;;8.05;6.28;;;;;;;28.20;49.75;100261.03;5037237;28;20140;-65
2021/06/26 08:57:56;;;;;;;8.52;5.35;;;;;;;28.27;48.20;100256.88;5037713;28;20320;-67
2021/06/26 09:00:25;;;;;;;6.60;5.63;;;;;;;28.35;48.45;100255.00;5054715;28;20024;-64
2021/06/26 09:02:51;;;;;;;8.18;5.88;;;;;;;28.41;49.36;100249.97;5054966;28;20451;-68
2021/06/26 09:05:27;;;;;;;6.60;5.68;;;;;;;28.49;48.74;100247.31;5054773;28;20409;-66
2021/06/26 09:07:53;;;;;;;7.85;5.65;;;;;;;28.54;48.11;100246.53;5054413;28;20428;-66
2021/06/26 09:10:21;;;;;;;8.75;5.43;;;;;;;28.59;48.56;100243.59;5039602;28;20057;-70
2021/06/26 09:12:48;;;;;;;7.72;6.20;;;;;;;28.62;47.37;100244.66;5055337;28;20098;-70
2021/06/26 09:15:28;;;;;;;7.93;6.30;;;;;;;28.70;48.37;100244.88;5058674;28;20175;-68
2021/06/26 09:17:55;;;;;;;6.72;5.68;;;;;;;28.72;47.14;100248.00;5046192;28;20503;-66
2021/06/26 09:20:31;;;;;;;6.85;5.35;;;;;;;28.72;47.03;100248.00;5056958;28;20159;-65
2021/06/26 09:22:58;;;;;;;7.38;5.40;;;;;;;28.74;47.80;100245.38;5056958;28;20363;-66
2021/06/26 09:25:35;;;;;;;7.03;5.43;;;;;;;28.73;47.71;100252.47;5058366;28;20024;-64
2021/06/26 09:28:04;;;;;;;6.35;4.95;;;;;;;28.73;46.84;100253.25;5058267;28;20409;-71
2021/06/26 09:30:41;;;;;;;5.43;4.85;;;;;;;28.73;47.16;100255.38;5057133;28;20021;-69
2021/06/26 09:33:11;;;;;;;6.57;4.43;;;;;;;28.74;46.46;100257.72;5058825;28;20029;-73
2021/06/26 09:35:38;;;;;;;5.13;4.57;;;;;;;28.77;45.30;100253.00;5041396;28;20025;-69
2021/06/26 09:38:05;;;;;;;8.77;4.70;;;;;;;28.85;46.39;100254.03;5038982;28;20020;-69
2021/06/26 09:40:31;;;;;;;8.05;4.30;;;;;;;28.94;45.32;100256.59;5053780;28;20028;-67
2021/06/26 09:42:57;;;;;;;7.45;4.75;;;;;;;29.02;44.28;100251.81;5058530;28;20024;-66
2021/06/26 09:45:23;;;;;;;5.22;4.72;;;;;;;29.05;45.33;100247.88;5058284;28;20313;-65
2021/06/26 09:47:48;;;;;;;5.85;4.93;;;;;;;29.12;44.73;100243.63;5057429;28;20021;-65
2021/06/26 09:50:17;;;;;;;4.85;4.43;;;;;;;29.19;44.21;100246.72;5057202;23;20073;-63
2021/06/26 09:52:44;;;;;;;4.93;4.22;;;;;;;29.29;43.53;100246.38;5036802;28;20087;-64
2021/06/26 09:55:17;;;;;;;4.80;4.28;;;;;;;29.37;43.20;100244.50;5020097;28;20112;-65
2021/06/26 09:57:43;;;;;;;4.20;3.90;;;;;;;29.40;43.65;100250.00;5038014;28;20025;-66
2021/06/26 10:00:09;;;;;;;4.30;3.90;;;;;;;29.49;43.77;100246.00;5038439;28;20040;-64
2021/06/26 10:02:35;;;;;;;4.85;4.35;;;;;;;29.53;41.69;100240.72;5038416;28;20030;-67
2021/06/26 10:05:02;;;;;;;8.10;4.40;;;;;;;29.55;41.98;100243.84;5035640;28;20033;-67
2021/06/26 10:07:29;;;;;;;4.85;4.45;;;;;;;29.54;42.91;100251.75;5031594;28;20034;-68
2021/06/26 10:09:55;;;;;;;4.50;4.03;;;;;;;29.59;43.67;100244.38;5034661;28;20033;-67
2021/06/26 10:12:21;;;;;;;5.70;4.35;;;;;;;29.62;42.98;100237.50;5034933;28;20017;-69
2021/06/26 10:14:47;;;;;;;4.18;3.78;;;;;;;29.70;42.39;100238.47;5032580;28;20576;-68
2021/06/26 10:17:14;;;;;;;4.65;4.13;;;;;;;29.74;41.96;100235.28;5035473;28;20017;-65
2021/06/26 10:19:40;;;;;;;6.38;4.28;;;;;;;29.75;41.98;100246.31;5036220;28;20021;-64
2021/06/26 10:22:05;;;;;;;5.32;3.97;;;;;;;29.78;41.35;100241.53;5037370;28;20083;-64
2021/06/26 10:24:31;;;;;;;9.85;4.10;;;;;;;29.79;41.75;100246.00;5037838;28;20092;-64
2021/06/26 10:26:57;;;;;;;8.25;3.50;;;;;;;29.82;41.92;100237.03;5037490;28;20109;-65
2021/06/26 10:29:35;;;;;;;4.88;3.40;;;;;;;29.88;41.29;100234.09;5037735;28;20088;-65
2021/06/26 10:32:11;;;;;;;6.90;3.25;;;;;;;29.89;41.14;100226.97;5037848;28;20037;-65
2021/06/26 10:34:42;;;;;;;4.28;3.72;;;;;;;29.97;40.49;100230.03;5020116;28;20017;-66
2021/06/26 10:37:19;;;;;;;5.65;3.40;;;;;;;30.01;40.32;100239.22;5020298;28;20025;-64
2021/06/26 10:39:46;;;;;;;6.28;3.22;;;;;;;30.06;41.12;100241.31;5036297;28;20037;-68
2021/06/26 10:42:14;;;;;;;4.50;4.00;;;;;;;30.09;40.20;100232.31;5034776;28;20388;-65
2021/06/26 10:44:49;;;;;;;5.20;3.72;;;;;;;30.13;40.73;100240.69;5019024;28;20108;-64
2021/06/26 10:47:16;;;;;;;5.20;3.75;;;;;;;30.14;39.55;100237.28;5037804;28;20053;-63
2021/06/26 10:49:46;;;;;;;4.63;3.50;;;;;;;30.14;39.95;100236.50;5037721;28;20100;-61
2021/06/26 10:52:19;;;;;;;4.18;3.63;;;;;;;30.17;40.49;100232.50;5017253;28;20377;-60
2021/06/26 10:54:53;;;;;;;4.43;3.35;;;;;;;30.20;39.59;100228.50;5017270;28;20437;-59
2021/06/26 10:57:18;;;;;;;3.30;2.90;;;;;;;30.23;38.69;100235.34;5017551;28;20068;-59
2021/06/26 11:00:01;;;;;;;3.30;3.00;;;;;;;30.28;39.74;100234.47;5017785;28;20049;-60
2021/06/26 11:02:43;;;;;;;3.33;2.60;;;;;;;30.34;39.62;100233.06;5005338;28;20053;-65
2021/06/26 11:05:09;;;;;;;;;;;;;;;30.40;38.85;100213.50;5017683;28;20018;-64
2021/06/26 11:07:35;;;;;;;3.90;3.10;;;;;;;30.43;38.89;100218.22;5014951;28;19909;-64
2021/06/26 11:10:12;;;;;;;4.63;3.00;;;;;;;30.47;37.22;100217.91;5016059;28;20049;-63
2021/06/26 11:12:49;;;;;;;3.67;3.05;;;;;;;30.48;38.64;100218.69;5016397;28;20345;-61
2021/06/26 11:15:23;;;;;;;3.38;2.95;;;;;;;30.51;38.95;100217.59;5016280;28;20025;-60
2021/06/26 11:17:48;;;;;;;8.65;3.53;;;;;;;30.56;39.10;100220.44;5016764;28;20018;-59
2021/06/26 11:20:16;;;;;;;4.00;3.65;;;;;;;30.54;38.34;100210.72;5010915;28;20294;-60